Junsele, Sweden

12:15 AM CET on December 23, 2014 (GMT +0100)
Kramfors-Solleftea Air Base | Change Station
CLOSE
Current Station
Airport
Location: Kramfors Flygplats,
Elevation: 33 ft
Nearby Weather Stations

Elev 33 ft 63.05 °N, 17.77 °E | Updated 25 minutes ago

Light Snow
Light Snow
23 °F
Feels Like 23 °F
N
0
Wind Variable Wind from North

Today
High -- | Low -- °F
--% Chance of Precip.
Yesterday
High -- | Low -- °F
Precip. -- in
9:40 AM 2:02 PM
New Moon, 1% visible
Pressure 29.24 in
Visibility 5.6 miles
Clouds Few 2600 ft
Scattered Clouds 6300 ft
Dew Point 23 °F
Humidity 100%
Rainfall 0.00 in
Snow Depth Not available.
UV 0 out of 12
Pollen Not available.
Air Quality Not available.
Flu Activity Not available.
METAR ESNK 222250Z AUTO 00000KT 9000 -SN FEW026/// SCT063/// M05/M05 Q0990

More Conditions Fewer Conditions

Pressure 29.24 in
Visibility 5.6 miles
Clouds Few 2600 ft
Scattered Clouds 6300 ft
Dew Point 23 °F
Humidity 100%
Rainfall 0.00 in
Snow Depth Not available.
UV 0 out of 12
Pollen Not available.
Air Quality Not available.
Flu Activity Not available.
METAR ESNK 222250Z AUTO 00000KT 9000 -SN FEW026/// SCT063/// M05/M05 Q0990

More Conditions Fewer Conditions

10-Day Weather Forecast

Almanac

Astronomy

Dec. 23, 2014 Rise Set
Actual Time
Civil Twilight
Nautical Twilight
Astronomical Twilight
Moon
Length of Visible Light
Length of Day
Tomorrow will be .
, % of the Moon is Illuminated

Today's Extremes

Country Highs Country Lows

Community

WunderPhotos

Upload Photos

1,779,704 photos uploaded!

WunderBlogs® & News

Nearby

Air Quality

  Air Quality AQ Index Pollutant
Not available.

Snow Depth

Station Depth Elevation

Earthquake Activity

City Distance Mag. Time & Date
Minimum magnitude displayed is 2.5.

Coastal Water Temperatures

Place Temperature

Nearby Weather Stations